sensor_id;sensor_type;location;lat;lon;timestamp;temperature;humidity
6118;DHT22;3089;48.202;11.510;2023-05-20T00:01:45;12.80;99.90
6118;DHT22;3089;48.202;11.510;2023-05-20T00:04:13;12.90;99.90
6118;DHT22;3089;48.202;11.510;2023-05-20T00:06:41;13.00;99.90
6118;DHT22;3089;48.202;11.510;2023-05-20T00:09:09;13.00;99.90
6118;DHT22;3089;48.202;11.510;2023-05-20T00:11:37;12.90;99.90
6118;DHT22;3089;48.202;11.510;2023-05-20T00:14:05;12.90;99.90
6118;DHT22;3089;48.202;11.510;2023-05-20T00:16:34;13.00;99.90
6118;DHT22;3089;48.202;11.510;2023-05-20T00:19:02;12.90;99.90
6118;DHT22;3089;48.202;11.510;2023-05-20T00:21:30;12.80;99.90
6118;DHT22;3089;48.202;11.510;2023-05-20T00:23:59;12.80;99.90
6118;DHT22;3089;48.202;11.510;2023-05-20T00:26:28;12.70;99.90
6118;DHT22;3089;48.202;11.510;2023-05-20T00:28:56;12.80;99.90
6118;DHT22;3089;48.202;11.510;2023-05-20T00:31:24;12.60;99.90
6118;DHT22;3089;48.202;11.510;2023-05-20T00:33:53;12.70;99.90
6118;DHT22;3089;48.202;11.510;2023-05-20T00:36:21;12.60;99.90
6118;DHT22;3089;48.202;11.510;2023-05-20T00:38:49;12.80;99.90
6118;DHT22;3089;48.202;11.510;2023-05-20T00:41:17;12.80;99.90
6118;DHT22;3089;48.202;11.510;2023-05-20T00:43:44;12.80;99.90
6118;DHT22;3089;48.202;11.510;2023-05-20T00:46:12;12.90;99.90
6118;DHT22;3089;48.202;11.510;2023-05-20T00:48:42;12.80;99.90
6118;DHT22;3089;48.202;11.510;2023-05-20T00:51:12;12.90;99.90
6118;DHT22;3089;48.202;11.510;2023-05-20T00:53:41;12.50;99.90
6118;DHT22;3089;48.202;11.510;2023-05-20T00:56:09;12.50;99.90
6118;DHT22;3089;48.202;11.510;2023-05-20T00:58:37;12.60;99.90
6118;DHT22;3089;48.202;11.510;2023-05-20T01:01:05;12.50;99.90
6118;DHT22;3089;48.202;11.510;2023-05-20T01:03:33;12.20;99.90
6118;DHT22;3089;48.202;11.510;2023-05-20T01:06:02;12.50;99.90
6118;DHT22;3089;48.202;11.510;2023-05-20T01:08:31;12.60;99.90
6118;DHT22;3089;48.202;11.510;2023-05-20T01:11:03;12.70;99.90
6118;DHT22;3089;48.202;11.510;2023-05-20T01:13:37;12.70;99.90
6118;DHT22;3089;48.202;11.510;2023-05-20T01:16:07;12.80;99.90
6118;DHT22;3089;48.202;11.510;2023-05-20T01:18:38;12.50;99.90
6118;DHT22;3089;48.202;11.510;2023-05-20T01:21:08;12.60;99.90
6118;DHT22;3089;48.202;11.510;2023-05-20T01:23:39;12.70;99.90
6118;DHT22;3089;48.202;11.510;2023-05-20T01:26:08;12.70;99.90
6118;DHT22;3089;48.202;11.510;2023-05-20T01:28:36;12.50;99.90
6118;DHT22;3089;48.202;11.510;2023-05-20T01:31:10;12.60;99.90
6118;DHT22;3089;48.202;11.510;2023-05-20T01:33:40;12.70;99.90
6118;DHT22;3089;48.202;11.510;2023-05-20T01:36:09;12.70;99.90
6118;DHT22;3089;48.202;11.510;2023-05-20T01:38:39;12.50;99.90
6118;DHT22;3089;48.202;11.510;2023-05-20T01:41:08;12.30;99.90
6118;DHT22;3089;48.202;11.510;2023-05-20T01:43:37;12.50;99.90
6118;DHT22;3089;48.202;11.510;2023-05-20T01:46:06;12.50;99.90
6118;DHT22;3089;48.202;11.510;2023-05-20T01:48:33;12.40;99.90
6118;DHT22;3089;48.202;11.510;2023-05-20T01:51:01;12.40;99.90
6118;DHT22;3089;48.202;11.510;2023-05-20T01:53:29;12.30;99.90
6118;DHT22;3089;48.202;11.510;2023-05-20T01:55:58;12.30;99.90
6118;DHT22;3089;48.202;11.510;2023-05-20T01:58:26;12.40;99.90
6118;DHT22;3089;48.202;11.510;2023-05-20T02:00:54;12.40;99.90
6118;DHT22;3089;48.202;11.510;2023-05-20T02:03:22;12.20;99.90
6118;DHT22;3089;48.202;11.510;2023-05-20T02:05:50;12.30;99.90
6118;DHT22;3089;48.202;11.510;2023-05-20T02:08:17;12.40;99.90
6118;DHT22;3089;48.202;11.510;2023-05-20T02:10:47;12.40;99.90
6118;DHT22;3089;48.202;11.510;2023-05-20T02:13:16;12.40;99.90
6118;DHT22;3089;48.202;11.510;2023-05-20T02:15:44;12.30;99.90
6118;DHT22;3089;48.202;11.510;2023-05-20T02:18:12;12.50;99.90
6118;DHT22;3089;48.202;11.510;2023-05-20T02:20:39;12.50;99.90
6118;DHT22;3089;48.202;11.510;2023-05-20T02:23:08;12.60;99.90
6118;DHT22;3089;48.202;11.510;2023-05-20T02:25:36;12.60;99.90
6118;DHT22;3089;48.202;11.510;2023-05-20T02:28:04;12.60;99.90
6118;DHT22;3089;48.202;11.510;2023-05-20T02:30:37;12.60;99.90
6118;DHT22;3089;48.202;11.510;2023-05-20T02:33:05;12.60;99.90
6118;DHT22;3089;48.202;11.510;2023-05-20T02:35:34;12.50;99.90
6118;DHT22;3089;48.202;11.510;2023-05-20T02:38:02;12.30;99.90
6118;DHT22;3089;48.202;11.510;2023-05-20T02:40:30;12.40;99.90
6118;DHT22;3089;48.202;11.510;2023-05-20T02:42:59;12.50;99.90
6118;DHT22;3089;48.202;11.510;2023-05-20T02:45:27;12.50;99.90
6118;DHT22;3089;48.202;11.510;2023-05-20T02:47:56;12.20;99.90
6118;DHT22;3089;48.202;11.510;2023-05-20T02:50:24;12.10;99.90
6118;DHT22;3089;48.202;11.510;2023-05-20T02:52:52;12.20;99.90
6118;DHT22;3089;48.202;11.510;2023-05-20T02:55:20;11.80;99.90
6118;DHT22;3089;48.202;11.510;2023-05-20T02:57:49;11.90;99.90
6118;DHT22;3089;48.202;11.510;2023-05-20T03:00:16;11.60;99.90
6118;DHT22;3089;48.202;11.510;2023-05-20T03:02:44;11.80;99.90
6118;DHT22;3089;48.202;11.510;2023-05-20T03:05:14;11.70;99.90
6118;DHT22;3089;48.202;11.510;2023-05-20T03:07:42;12.10;99.90
6118;DHT22;3089;48.202;11.510;2023-05-20T03:10:09;11.90;99.90
6118;DHT22;3089;48.202;11.510;2023-05-20T03:12:37;11.90;99.90
6118;DHT22;3089;48.202;11.510;2023-05-20T03:15:06;12.10;99.90
6118;DHT22;3089;48.202;11.510;2023-05-20T03:17:34;12.00;99.90
6118;DHT22;3089;48.202;11.510;2023-05-20T03:20:03;11.90;99.90
6118;DHT22;3089;48.202;11.510;2023-05-20T03:22:35;12.00;99.90
6118;DHT22;3089;48.202;11.510;2023-05-20T03:25:03;12.10;99.90
6118;DHT22;3089;48.202;11.510;2023-05-20T03:27:31;12.20;99.90
6118;DHT22;3089;48.202;11.510;2023-05-20T03:29:59;12.60;99.90
6118;DHT22;3089;48.202;11.510;2023-05-20T03:32:27;12.20;99.90
6118;DHT22;3089;48.202;11.510;2023-05-20T03:34:55;11.90;99.90
6118;DHT22;3089;48.202;11.510;2023-05-20T03:37:23;12.00;99.90
6118;DHT22;3089;48.202;11.510;2023-05-20T03:39:53;11.80;99.90
6118;DHT22;3089;48.202;11.510;2023-05-20T03:42:20;12.00;99.90
6118;DHT22;3089;48.202;11.510;2023-05-20T03:44:48;11.90;99.90
6118;DHT22;3089;48.202;11.510;2023-05-20T03:47:16;12.10;99.90
6118;DHT22;3089;48.202;11.510;2023-05-20T03:49:44;12.10;99.90
6118;DHT22;3089;48.202;11.510;2023-05-20T03:52:12;12.00;99.90
6118;DHT22;3089;48.202;11.510;2023-05-20T03:54:40;12.20;99.90
6118;DHT22;3089;48.202;11.510;2023-05-20T03:57:09;12.20;99.90
6118;DHT22;3089;48.202;11.510;2023-05-20T03:59:37;12.00;99.90
6118;DHT22;3089;48.202;11.510;2023-05-20T04:02:05;11.90;99.90
6118;DHT22;3089;48.202;11.510;2023-05-20T04:04:33;12.10;99.90
6118;DHT22;3089;48.202;11.510;2023-05-20T04:07:01;12.10;99.90
6118;DHT22;3089;48.202;11.510;2023-05-20T04:09:30;12.20;99.90
6118;DHT22;3089;48.202;11.510;2023-05-20T04:11:58;12.00;99.90
6118;DHT22;3089;48.202;11.510;2023-05-20T04:14:27;12.10;99.90
6118;DHT22;3089;48.202;11.510;2023-05-20T04:16:57;12.30;99.90
6118;DHT22;3089;48.202;11.510;2023-05-20T04:19:24;11.80;99.90
6118;DHT22;3089;48.202;11.510;2023-05-20T04:21:54;12.10;99.90
6118;DHT22;3089;48.202;11.510;2023-05-20T04:24:22;12.00;99.90
6118;DHT22;3089;48.202;11.510;2023-05-20T04:26:51;11.60;99.90
6118;DHT22;3089;48.202;11.510;2023-05-20T04:29:19;11.70;99.90
6118;DHT22;3089;48.202;11.510;2023-05-20T04:31:48;12.00;99.90
6118;DHT22;3089;48.202;11.510;2023-05-20T04:34:16;12.10;99.90
6118;DHT22;3089;48.202;11.510;2023-05-20T04:36:45;12.10;99.90
6118;DHT22;3089;48.202;11.510;2023-05-20T04:39:14;11.90;99.90
6118;DHT22;3089;48.202;11.510;2023-05-20T04:41:44;12.10;99.90
6118;DHT22;3089;48.202;11.510;2023-05-20T04:44:13;12.20;99.90
6118;DHT22;3089;48.202;11.510;2023-05-20T04:46:40;12.10;99.90
6118;DHT22;3089;48.202;11.510;2023-05-20T04:49:09;12.00;99.90
6118;DHT22;3089;48.202;11.510;2023-05-20T04:51:37;11.80;99.90
6118;DHT22;3089;48.202;11.510;2023-05-20T04:54:05;12.10;99.90
6118;DHT22;3089;48.202;11.510;2023-05-20T04:56:33;12.20;99.90
6118;DHT22;3089;48.202;11.510;2023-05-20T04:59:01;12.30;99.90
6118;DHT22;3089;48.202;11.510;2023-05-20T05:01:29;12.30;99.90
6118;DHT22;3089;48.202;11.510;2023-05-20T05:03:57;12.20;99.90
6118;DHT22;3089;48.202;11.510;2023-05-20T05:06:26;12.30;99.90
6118;DHT22;3089;48.202;11.510;2023-05-20T05:08:54;11.80;99.90
6118;DHT22;3089;48.202;11.510;2023-05-20T05:11:22;11.90;99.90
6118;DHT22;3089;48.202;11.510;2023-05-20T05:13:50;12.00;99.90
6118;DHT22;3089;48.202;11.510;2023-05-20T05:16:18;11.90;99.90
6118;DHT22;3089;48.202;11.510;2023-05-20T05:18:46;11.50;99.90
6118;DHT22;3089;48.202;11.510;2023-05-20T05:21:14;11.70;99.90
6118;DHT22;3089;48.202;11.510;2023-05-20T05:23:43;11.60;99.90
6118;DHT22;3089;48.202;11.510;2023-05-20T05:26:11;11.70;99.90
6118;DHT22;3089;48.202;11.510;2023-05-20T05:28:40;11.60;99.90
6118;DHT22;3089;48.202;11.510;2023-05-20T05:31:08;11.50;99.90
6118;DHT22;3089;48.202;11.510;2023-05-20T05:33:36;11.90;99.90
6118;DHT22;3089;48.202;11.510;2023-05-20T05:36:04;11.80;99.90
6118;DHT22;3089;48.202;11.510;2023-05-20T05:38:32;12.00;99.90
6118;DHT22;3089;48.202;11.510;2023-05-20T05:41:01;12.20;99.90
6118;DHT22;3089;48.202;11.510;2023-05-20T05:43:29;11.90;99.90
6118;DHT22;3089;48.202;11.510;2023-05-20T05:45:57;12.20;99.90
6118;DHT22;3089;48.202;11.510;2023-05-20T05:48:25;11.70;99.90
6118;DHT22;3089;48.202;11.510;2023-05-20T05:50:53;11.70;99.90
6118;DHT22;3089;48.202;11.510;2023-05-20T05:53:21;11.80;99.90
6118;DHT22;3089;48.202;11.510;2023-05-20T05:55:48;11.90;99.90
6118;DHT22;3089;48.202;11.510;2023-05-20T05:58:18;11.70;99.90
6118;DHT22;3089;48.202;11.510;2023-05-20T06:00:46;12.00;99.90
6118;DHT22;3089;48.202;11.510;2023-05-20T06:03:17;12.00;99.90
6118;DHT22;3089;48.202;11.510;2023-05-20T06:05:45;12.00;99.90
6118;DHT22;3089;48.202;11.510;2023-05-20T06:08:13;12.20;99.90
6118;DHT22;3089;48.202;11.510;2023-05-20T06:10:46;12.20;99.90
6118;DHT22;3089;48.202;11.510;2023-05-20T06:13:14;11.90;99.90
6118;DHT22;3089;48.202;11.510;2023-05-20T06:15:43;12.20;99.90
6118;DHT22;3089;48.202;11.510;2023-05-20T06:18:11;12.30;99.90
6118;DHT22;3089;48.202;11.510;2023-05-20T06:20:39;12.40;99.90
6118;DHT22;3089;48.202;11.510;2023-05-20T06:23:07;12.20;99.90
6118;DHT22;3089;48.202;11.510;2023-05-20T06:25:35;11.80;99.90
6118;DHT22;3089;48.202;11.510;2023-05-20T06:28:03;12.10;99.90
6118;DHT22;3089;48.202;11.510;2023-05-20T06:30:31;12.30;99.90
6118;DHT22;3089;48.202;11.510;2023-05-20T06:33:00;12.30;99.90
6118;DHT22;3089;48.202;11.510;2023-05-20T06:35:28;12.20;99.90
6118;DHT22;3089;48.202;11.510;2023-05-20T06:37:56;12.30;99.90
6118;DHT22;3089;48.202;11.510;2023-05-20T06:40:24;12.40;99.90
6118;DHT22;3089;48.202;11.510;2023-05-20T06:42:53;12.50;99.90
6118;DHT22;3089;48.202;11.510;2023-05-20T06:45:20;12.60;99.90
6118;DHT22;3089;48.202;11.510;2023-05-20T06:47:48;12.40;99.90
6118;DHT22;3089;48.202;11.510;2023-05-20T06:50:18;12.40;99.90
6118;DHT22;3089;48.202;11.510;2023-05-20T06:52:45;12.60;99.90
6118;DHT22;3089;48.202;11.510;2023-05-20T06:55:13;12.30;99.90
6118;DHT22;3089;48.202;11.510;2023-05-20T06:57:41;12.20;99.90
6118;DHT22;3089;48.202;11.510;2023-05-20T07:00:11;12.20;99.90
6118;DHT22;3089;48.202;11.510;2023-05-20T07:02:40;12.30;99.90
6118;DHT22;3089;48.202;11.510;2023-05-20T07:05:08;12.50;99.90
6118;DHT22;3089;48.202;11.510;2023-05-20T07:07:38;12.50;99.90
6118;DHT22;3089;48.202;11.510;2023-05-20T07:10:07;12.50;99.90
6118;DHT22;3089;48.202;11.510;2023-05-20T07:12:35;12.50;99.90
6118;DHT22;3089;48.202;11.510;2023-05-20T07:15:03;12.70;99.90
6118;DHT22;3089;48.202;11.510;2023-05-20T07:17:31;12.70;99.90
6118;DHT22;3089;48.202;11.510;2023-05-20T07:19:59;13.10;99.90
6118;DHT22;3089;48.202;11.510;2023-05-20T07:22:27;13.10;99.90
6118;DHT22;3089;48.202;11.510;2023-05-20T07:24:56;13.00;99.90
6118;DHT22;3089;48.202;11.510;2023-05-20T07:27:24;13.00;99.90
6118;DHT22;3089;48.202;11.510;2023-05-20T07:29:52;13.10;99.90
6118;DHT22;3089;48.202;11.510;2023-05-20T07:32:20;13.10;99.90
6118;DHT22;3089;48.202;11.510;2023-05-20T07:34:48;13.70;99.90
6118;DHT22;3089;48.202;11.510;2023-05-20T07:37:16;14.00;99.90
6118;DHT22;3089;48.202;11.510;2023-05-20T07:39:44;15.00;99.90
6118;DHT22;3089;48.202;11.510;2023-05-20T07:42:13;14.90;99.90
6118;DHT22;3089;48.202;11.510;2023-05-20T07:44:41;14.60;99.90
6118;DHT22;3089;48.202;11.510;2023-05-20T07:47:08;14.60;99.90
6118;DHT22;3089;48.202;11.510;2023-05-20T07:49:36;15.00;99.90
6118;DHT22;3089;48.202;11.510;2023-05-20T07:52:05;15.60;99.90
6118;DHT22;3089;48.202;11.510;2023-05-20T07:54:34;16.60;99.90
6118;DHT22;3089;48.202;11.510;2023-05-20T07:57:02;16.50;99.90
6118;DHT22;3089;48.202;11.510;2023-05-20T07:59:31;16.50;99.90
6118;DHT22;3089;48.202;11.510;2023-05-20T08:01:59;15.30;99.90
6118;DHT22;3089;48.202;11.510;2023-05-20T08:04:27;14.60;99.90
6118;DHT22;3089;48.202;11.510;2023-05-20T08:06:55;14.90;99.90
6118;DHT22;3089;48.202;11.510;2023-05-20T08:09:22;14.60;99.90
6118;DHT22;3089;48.202;11.510;2023-05-20T08:11:50;15.40;99.90
6118;DHT22;3089;48.202;11.510;2023-05-20T08:14:18;15.70;99.90
6118;DHT22;3089;48.202;11.510;2023-05-20T08:16:47;15.60;99.90
6118;DHT22;3089;48.202;11.510;2023-05-20T08:19:19;16.00;99.90
6118;DHT22;3089;48.202;11.510;2023-05-20T08:21:47;15.80;99.90
6118;DHT22;3089;48.202;11.510;2023-05-20T08:24:15;16.10;99.90
6118;DHT22;3089;48.202;11.510;2023-05-20T08:26:43;16.10;99.90
6118;DHT22;3089;48.202;11.510;2023-05-20T08:29:11;16.10;99.90
6118;DHT22;3089;48.202;11.510;2023-05-20T08:31:39;16.10;99.90
6118;DHT22;3089;48.202;11.510;2023-05-20T08:34:10;15.80;99.90
6118;DHT22;3089;48.202;11.510;2023-05-20T08:36:38;16.40;99.90
6118;DHT22;3089;48.202;11.510;2023-05-20T08:39:06;16.50;99.90
6118;DHT22;3089;48.202;11.510;2023-05-20T08:41:34;16.30;99.90
6118;DHT22;3089;48.202;11.510;2023-05-20T08:44:04;16.60;99.90
6118;DHT22;3089;48.202;11.510;2023-05-20T08:46:33;16.60;99.90
6118;DHT22;3089;48.202;11.510;2023-05-20T08:49:02;17.40;99.90
6118;DHT22;3089;48.202;11.510;2023-05-20T08:51:32;17.80;99.90
6118;DHT22;3089;48.202;11.510;2023-05-20T08:54:02;17.40;99.90
6118;DHT22;3089;48.202;11.510;2023-05-20T08:56:30;17.80;99.90
6118;DHT22;3089;48.202;11.510;2023-05-20T08:58:59;17.30;99.90
6118;DHT22;3089;48.202;11.510;2023-05-20T09:01:27;17.10;99.90
6118;DHT22;3089;48.202;11.510;2023-05-20T09:03:55;16.90;99.90
6118;DHT22;3089;48.202;11.510;2023-05-20T09:06:23;16.90;99.90
6118;DHT22;3089;48.202;11.510;2023-05-20T09:08:53;17.20;99.90
6118;DHT22;3089;48.202;11.510;2023-05-20T09:11:20;17.20;99.90
6118;DHT22;3089;48.202;11.510;2023-05-20T09:13:49;17.30;99.90
6118;DHT22;3089;48.202;11.510;2023-05-20T09:16:17;17.90;99.90
6118;DHT22;3089;48.202;11.510;2023-05-20T09:18:45;18.00;99.90
6118;DHT22;3089;48.202;11.510;2023-05-20T09:21:14;17.90;99.90
6118;DHT22;3089;48.202;11.510;2023-05-20T09:23:46;17.60;99.90
6118;DHT22;3089;48.202;11.510;2023-05-20T09:26:18;17.50;99.90
6118;DHT22;3089;48.202;11.510;2023-05-20T09:28:46;17.90;99.90
6118;DHT22;3089;48.202;11.510;2023-05-20T09:31:14;17.90;99.90
6118;DHT22;3089;48.202;11.510;2023-05-20T09:33:43;17.60;99.90
6118;DHT22;3089;48.202;11.510;2023-05-20T09:36:12;17.40;99.90
6118;DHT22;3089;48.202;11.510;2023-05-20T09:38:43;17.60;99.90
6118;DHT22;3089;48.202;11.510;2023-05-20T09:41:13;17.70;99.90
6118;DHT22;3089;48.202;11.510;2023-05-20T09:43:43;18.00;99.90
6118;DHT22;3089;48.202;11.510;2023-05-20T09:46:12;17.90;99.90
6118;DHT22;3089;48.202;11.510;2023-05-20T09:48:41;18.10;99.90
6118;DHT22;3089;48.202;11.510;2023-05-20T09:51:10;18.20;99.90
6118;DHT22;3089;48.202;11.510;2023-05-20T09:53:39;18.10;99.90
6118;DHT22;3089;48.202;11.510;2023-05-20T09:56:08;18.60;99.90
6118;DHT22;3089;48.202;11.510;2023-05-20T09:58:37;18.80;99.90
6118;DHT22;3089;48.202;11.510;2023-05-20T10:01:10;19.00;99.90
6118;DHT22;3089;48.202;11.510;2023-05-20T10:03:39;19.30;99.90
6118;DHT22;3089;48.202;11.510;2023-05-20T10:06:21;19.50;99.90
6118;DHT22;3089;48.202;11.510;2023-05-20T10:09:10;19.60;99.90
6118;DHT22;3089;48.202;11.510;2023-05-20T10:11:46;19.90;99.90
6118;DHT22;3089;48.202;11.510;2023-05-20T10:14:30;19.90;99.90
6118;DHT22;3089;48.202;11.510;2023-05-20T10:17:05;19.90;99.90
6118;DHT22;3089;48.202;11.510;2023-05-20T10:19:35;19.90;99.90
6118;DHT22;3089;48.202;11.510;2023-05-20T10:22:05;19.80;99.90
6118;DHT22;3089;48.202;11.510;2023-05-20T10:24:34;19.80;99.90
6118;DHT22;3089;48.202;11.510;2023-05-20T10:27:06;19.50;99.90
6118;DHT22;3089;48.202;11.510;2023-05-20T10:29:42;19.20;99.90
6118;DHT22;3089;48.202;11.510;2023-05-20T10:32:25;18.90;99.90
6118;DHT22;3089;48.202;11.510;2023-05-20T10:34:58;18.80;99.90
6118;DHT22;3089;48.202;11.510;2023-05-20T10:37:29;18.70;99.90
6118;DHT22;3089;48.202;11.510;2023-05-20T10:40:07;18.70;99.90
6118;DHT22;3089;48.202;11.510;2023-05-20T10:42:36;18.80;99.90
6118;DHT22;3089;48.202;11.510;2023-05-20T10:45:06;19.30;99.90
6118;DHT22;3089;48.202;11.510;2023-05-20T10:47:40;19.60;99.90
6118;DHT22;3089;48.202;11.510;2023-05-20T10:50:24;20.10;99.90
6118;DHT22;3089;48.202;11.510;2023-05-20T10:52:53;19.80;99.90
6118;DHT22;3089;48.202;11.510;2023-05-20T10:55:21;19.90;99.90
6118;DHT22;3089;48.202;11.510;2023-05-20T10:57:50;19.90;99.90
6118;DHT22;3089;48.202;11.510;2023-05-20T11:00:18;20.00;99.90
6118;DHT22;3089;48.202;11.510;2023-05-20T11:02:48;20.10;99.90
6118;DHT22;3089;48.202;11.510;2023-05-20T11:05:17;20.20;99.90
6118;DHT22;3089;48.202;11.510;2023-05-20T11:07:45;20.00;99.90
6118;DHT22;3089;48.202;11.510;2023-05-20T11:10:13;19.80;99.90
6118;DHT22;3089;48.202;11.510;2023-05-20T11:12:41;19.90;99.90
6118;DHT22;3089;48.202;11.510;2023-05-20T11:15:10;20.00;99.90
6118;DHT22;3089;48.202;11.510;2023-05-20T11:17:52;20.30;99.90
6118;DHT22;3089;48.202;11.510;2023-05-20T11:20:21;20.70;99.90
6118;DHT22;3089;48.202;11.510;2023-05-20T11:22:49;20.80;99.90
6118;DHT22;3089;48.202;11.510;2023-05-20T11:25:18;21.00;99.90
6118;DHT22;3089;48.202;11.510;2023-05-20T11:27:46;20.80;99.90
6118;DHT22;3089;48.202;11.510;2023-05-20T11:30:14;20.70;99.90
6118;DHT22;3089;48.202;11.510;2023-05-20T11:32:44;20.70;99.90
6118;DHT22;3089;48.202;11.510;2023-05-20T11:35:25;20.90;99.90
6118;DHT22;3089;48.202;11.510;2023-05-20T11:37:55;20.90;99.90
6118;DHT22;3089;48.202;11.510;2023-05-20T11:40:24;20.70;99.90
6118;DHT22;3089;48.202;11.510;2023-05-20T11:43:02;21.10;99.90
6118;DHT22;3089;48.202;11.510;2023-05-20T11:45:38;21.30;99.90
6118;DHT22;3089;48.202;11.510;2023-05-20T11:48:07;21.10;99.90
6118;DHT22;3089;48.202;11.510;2023-05-20T11:50:39;21.00;99.90
6118;DHT22;3089;48.202;11.510;2023-05-20T11:53:10;21.00;99.90
6118;DHT22;3089;48.202;11.510;2023-05-20T11:55:44;20.80;99.90
6118;DHT22;3089;48.202;11.510;2023-05-20T11:58:17;21.00;99.90
6118;DHT22;3089;48.202;11.510;2023-05-20T12:00:45;21.20;99.90
6118;DHT22;3089;48.202;11.510;2023-05-20T12:03:22;21.40;99.90
6118;DHT22;3089;48.202;11.510;2023-05-20T12:05:52;21.60;99.90
6118;DHT22;3089;48.202;11.510;2023-05-20T12:08:20;21.90;99.90
6118;DHT22;3089;48.202;11.510;2023-05-20T12:10:48;21.70;99.90
6118;DHT22;3089;48.202;11.510;2023-05-20T12:13:16;21.30;99.90
6118;DHT22;3089;48.202;11.510;2023-05-20T12:15:44;21.30;99.90
6118;DHT22;3089;48.202;11.510;2023-05-20T12:18:12;21.60;99.90
6118;DHT22;3089;48.202;11.510;2023-05-20T12:20:41;21.60;99.90
6118;DHT22;3089;48.202;11.510;2023-05-20T12:23:11;21.50;99.90
6118;DHT22;3089;48.202;11.510;2023-05-20T12:25:38;21.40;99.90
6118;DHT22;3089;48.202;11.510;2023-05-20T12:28:06;21.50;99.90
6118;DHT22;3089;48.202;11.510;2023-05-20T12:30:34;21.30;99.90
6118;DHT22;3089;48.202;11.510;2023-05-20T12:33:03;21.30;99.90
6118;DHT22;3089;48.202;11.510;2023-05-20T12:35:37;21.60;99.90
6118;DHT22;3089;48.202;11.510;2023-05-20T12:38:05;21.70;99.90
6118;DHT22;3089;48.202;11.510;2023-05-20T12:40:35;21.90;99.90
6118;DHT22;3089;48.202;11.510;2023-05-20T12:43:04;21.80;99.90
6118;DHT22;3089;48.202;11.510;2023-05-20T12:45:32;21.80;99.90
6118;DHT22;3089;48.202;11.510;2023-05-20T12:48:01;21.80;99.90
6118;DHT22;3089;48.202;11.510;2023-05-20T12:50:29;21.50;99.90
6118;DHT22;3089;48.202;11.510;2023-05-20T12:52:57;21.70;99.90
6118;DHT22;3089;48.202;11.510;2023-05-20T12:55:26;21.80;99.90
6118;DHT22;3089;48.202;11.510;2023-05-20T12:57:55;21.80;99.90
6118;DHT22;3089;48.202;11.510;2023-05-20T13:00:23;22.00;99.90
6118;DHT22;3089;48.202;11.510;2023-05-20T13:02:51;22.10;99.90
6118;DHT22;3089;48.202;11.510;2023-05-20T13:05:21;22.00;99.90
6118;DHT22;3089;48.202;11.510;2023-05-20T13:07:49;21.90;99.90
6118;DHT22;3089;48.202;11.510;2023-05-20T13:10:17;22.10;99.90
6118;DHT22;3089;48.202;11.510;2023-05-20T13:12:45;22.30;99.90
6118;DHT22;3089;48.202;11.510;2023-05-20T13:15:15;22.30;99.90
6118;DHT22;3089;48.202;11.510;2023-05-20T13:17:43;22.50;99.90
6118;DHT22;3089;48.202;11.510;2023-05-20T13:20:12;22.50;99.90
6118;DHT22;3089;48.202;11.510;2023-05-20T13:22:40;22.50;99.90
6118;DHT22;3089;48.202;11.510;2023-05-20T13:25:08;22.40;99.90
6118;DHT22;3089;48.202;11.510;2023-05-20T13:27:36;22.40;99.90
6118;DHT22;3089;48.202;11.510;2023-05-20T13:30:05;22.20;99.90
6118;DHT22;3089;48.202;11.510;2023-05-20T13:32:34;22.50;99.90
6118;DHT22;3089;48.202;11.510;2023-05-20T13:35:03;22.30;99.90
6118;DHT22;3089;48.202;11.510;2023-05-20T13:37:31;22.30;99.90
6118;DHT22;3089;48.202;11.510;2023-05-20T13:39:59;22.40;99.90
6118;DHT22;3089;48.202;11.510;2023-05-20T13:42:27;22.30;99.90
6118;DHT22;3089;48.202;11.510;2023-05-20T13:44:55;22.40;99.90
6118;DHT22;3089;48.202;11.510;2023-05-20T13:47:23;22.40;99.90
6118;DHT22;3089;48.202;11.510;2023-05-20T13:49:53;22.00;99.90
6118;DHT22;3089;48.202;11.510;2023-05-20T13:52:21;21.90;99.90
6118;DHT22;3089;48.202;11.510;2023-05-20T13:54:48;22.10;99.90
6118;DHT22;3089;48.202;11.510;2023-05-20T13:57:17;22.20;99.90
6118;DHT22;3089;48.202;11.510;2023-05-20T13:59:45;22.40;99.90
6118;DHT22;3089;48.202;11.510;2023-05-20T14:02:13;22.30;99.90
6118;DHT22;3089;48.202;11.510;2023-05-20T14:04:41;22.20;99.90
6118;DHT22;3089;48.202;11.510;2023-05-20T14:07:12;22.00;99.90
6118;DHT22;3089;48.202;11.510;2023-05-20T14:09:39;21.90;99.90
6118;DHT22;3089;48.202;11.510;2023-05-20T14:12:07;22.00;99.90
6118;DHT22;3089;48.202;11.510;2023-05-20T14:14:35;21.90;99.90
6118;DHT22;3089;48.202;11.510;2023-05-20T14:17:03;21.90;99.90
6118;DHT22;3089;48.202;11.510;2023-05-20T14:19:31;21.70;99.90
6118;DHT22;3089;48.202;11.510;2023-05-20T14:21:59;21.60;99.90
6118;DHT22;3089;48.202;11.510;2023-05-20T14:24:28;21.50;99.90
6118;DHT22;3089;48.202;11.510;2023-05-20T14:26:56;21.50;99.90
6118;DHT22;3089;48.202;11.510;2023-05-20T14:29:24;21.50;99.90
6118;DHT22;3089;48.202;11.510;2023-05-20T14:31:52;21.50;99.90
6118;DHT22;3089;48.202;11.510;2023-05-20T14:34:20;21.50;99.90
6118;DHT22;3089;48.202;11.510;2023-05-20T14:36:48;21.50;99.90
6118;DHT22;3089;48.202;11.510;2023-05-20T14:39:16;21.30;99.90
6118;DHT22;3089;48.202;11.510;2023-05-20T14:41:45;21.30;99.90
6118;DHT22;3089;48.202;11.510;2023-05-20T14:44:13;21.30;99.90
6118;DHT22;3089;48.202;11.510;2023-05-20T14:46:41;21.20;99.90
6118;DHT22;3089;48.202;11.510;2023-05-20T14:49:09;21.30;99.90
6118;DHT22;3089;48.202;11.510;2023-05-20T14:51:37;21.30;99.90
6118;DHT22;3089;48.202;11.510;2023-05-20T14:54:05;21.20;99.90
6118;DHT22;3089;48.202;11.510;2023-05-20T14:56:34;21.20;99.90
6118;DHT22;3089;48.202;11.510;2023-05-20T14:59:04;21.20;99.90
6118;DHT22;3089;48.202;11.510;2023-05-20T15:01:32;21.20;99.90
6118;DHT22;3089;48.202;11.510;2023-05-20T15:04:01;21.20;99.90
6118;DHT22;3089;48.202;11.510;2023-05-20T15:06:29;21.10;99.90
6118;DHT22;3089;48.202;11.510;2023-05-20T15:08:59;21.20;99.90
6118;DHT22;3089;48.202;11.510;2023-05-20T15:11:27;21.10;99.90
6118;DHT22;3089;48.202;11.510;2023-05-20T15:13:54;21.10;99.90
6118;DHT22;3089;48.202;11.510;2023-05-20T15:16:24;21.10;99.90
6118;DHT22;3089;48.202;11.510;2023-05-20T15:18:52;21.10;99.90
6118;DHT22;3089;48.202;11.510;2023-05-20T15:21:20;21.10;99.90
6118;DHT22;3089;48.202;11.510;2023-05-20T15:23:48;21.10;99.90
6118;DHT22;3089;48.202;11.510;2023-05-20T15:26:16;21.00;99.90
6118;DHT22;3089;48.202;11.510;2023-05-20T15:28:43;21.10;99.90
6118;DHT22;3089;48.202;11.510;2023-05-20T15:31:11;21.00;99.90
6118;DHT22;3089;48.202;11.510;2023-05-20T15:33:40;21.00;99.90
6118;DHT22;3089;48.202;11.510;2023-05-20T15:36:09;21.00;99.90
6118;DHT22;3089;48.202;11.510;2023-05-20T15:38:36;21.00;99.90
6118;DHT22;3089;48.202;11.510;2023-05-20T15:41:04;21.10;99.90
6118;DHT22;3089;48.202;11.510;2023-05-20T15:43:33;21.00;99.90
6118;DHT22;3089;48.202;11.510;2023-05-20T15:46:01;21.10;99.90
6118;DHT22;3089;48.202;11.510;2023-05-20T15:48:29;21.10;99.90
6118;DHT22;3089;48.202;11.510;2023-05-20T15:50:58;21.00;99.90
6118;DHT22;3089;48.202;11.510;2023-05-20T15:53:26;21.10;99.90
6118;DHT22;3089;48.202;11.510;2023-05-20T15:55:54;21.20;99.90